createdAt,value
2024-01-11T00:00:42.156Z,0.34
2024-01-11T00:03:29.250Z,0.27
2024-01-11T00:05:58.068Z,0.22
2024-01-11T00:08:25.162Z,0.38
2024-01-11T00:10:52.642Z,0.31
2024-01-11T00:13:19.670Z,0.40
2024-01-11T00:15:47.220Z,0.40
2024-01-11T00:18:14.407Z,0.42
2024-01-11T00:20:42.106Z,0.40
2024-01-11T00:23:09.233Z,0.35
2024-01-11T00:25:36.562Z,0.53
2024-01-11T00:28:03.732Z,0.51
2024-01-11T00:30:31.207Z,0.59
2024-01-11T00:32:58.473Z,0.43
2024-01-11T00:35:26.062Z,0.62
2024-01-11T00:37:53.144Z,0.56
2024-01-11T00:40:20.542Z,0.59
2024-01-11T00:42:47.602Z,0.61
2024-01-11T00:45:14.969Z,0.64
2024-01-11T00:47:42.084Z,0.63
2024-01-11T00:50:10.765Z,0.63
2024-01-11T00:52:37.879Z,0.73
2024-01-11T00:55:05.749Z,0.73
2024-01-11T00:57:32.803Z,0.69
2024-01-11T01:00:00.116Z,0.73
2024-01-11T01:02:27.385Z,0.64
2024-01-11T01:04:54.826Z,0.37
2024-01-11T01:07:21.879Z,0.26
2024-01-11T01:09:49.260Z,0.23
2024-01-11T01:12:16.299Z,0.26
2024-01-11T01:14:43.656Z,0.24
2024-01-11T01:17:11.569Z,0.27
2024-01-11T01:19:39.859Z,0.25
2024-01-11T01:22:07.000Z,0.49
2024-01-11T01:24:34.394Z,0.20
2024-01-11T01:27:01.565Z,0.53
2024-01-11T01:29:29.179Z,0.47
2024-01-11T01:31:57.017Z,0.55
2024-01-11T01:34:24.628Z,0.59
2024-01-11T01:36:51.856Z,0.75
2024-01-11T01:39:19.209Z,0.47
2024-01-11T01:41:46.211Z,0.60
2024-01-11T01:44:13.584Z,0.65
2024-01-11T01:46:40.898Z,0.73
2024-01-11T01:49:08.565Z,0.55
2024-01-11T01:51:35.725Z,0.55
2024-01-11T01:54:04.660Z,0.57
2024-01-11T01:56:32.585Z,0.61
2024-01-11T01:59:02.190Z,0.60
2024-01-11T02:01:29.551Z,0.54
2024-01-11T02:03:57.597Z,0.60
2024-01-11T02:06:27.209Z,0.47
2024-01-11T02:08:57.457Z,0.60
2024-01-11T02:11:25.518Z,0.63
2024-01-11T02:13:53.015Z,0.54
2024-01-11T02:16:20.103Z,0.62
2024-01-11T02:18:47.717Z,0.47
2024-01-11T02:21:16.739Z,0.58
2024-01-11T02:23:48.165Z,0.43
2024-01-11T02:26:16.096Z,0.53
2024-01-11T02:28:46.703Z,0.52
2024-01-11T02:31:15.438Z,0.39
2024-01-11T02:33:43.582Z,0.47
2024-01-11T02:36:11.571Z,0.40
2024-01-11T02:38:39.491Z,0.47
2024-01-11T02:41:07.767Z,0.50
2024-01-11T02:43:37.169Z,0.74
2024-01-11T02:46:04.810Z,0.73
2024-01-11T02:48:32.291Z,0.68
2024-01-11T02:50:59.719Z,0.63
2024-01-11T02:53:27.076Z,0.67
2024-01-11T02:55:54.092Z,0.92
2024-01-11T02:58:21.511Z,0.58
2024-01-11T03:00:48.623Z,0.69
2024-01-11T03:03:16.077Z,0.61
2024-01-11T03:05:43.161Z,0.66
2024-01-11T03:08:10.561Z,0.84
2024-01-11T03:10:41.873Z,0.83
2024-01-11T03:13:09.265Z,0.76
2024-01-11T03:15:36.326Z,0.75
2024-01-11T03:18:04.206Z,0.76
2024-01-11T03:20:31.565Z,0.76
2024-01-11T03:22:59.113Z,0.77
2024-01-11T03:25:26.307Z,0.73
2024-01-11T03:27:53.660Z,0.71
2024-01-11T03:30:20.893Z,0.65
2024-01-11T03:32:48.642Z,0.54
2024-01-11T03:35:15.862Z,0.58
2024-01-11T03:37:43.273Z,0.56
2024-01-11T03:40:10.603Z,0.63
2024-01-11T03:42:37.990Z,0.63
2024-01-11T03:45:05.554Z,0.60
2024-01-11T03:47:33.122Z,0.56
2024-01-11T03:50:00.257Z,0.56
2024-01-11T03:52:27.688Z,0.60
2024-01-11T03:54:54.705Z,0.61
2024-01-11T03:57:22.109Z,0.64
2024-01-11T03:59:49.105Z,0.55
2024-01-11T04:02:16.803Z,0.62
2024-01-11T04:04:43.890Z,0.52
2024-01-11T04:07:11.235Z,0.51
2024-01-11T04:09:39.484Z,0.66
2024-01-11T04:12:07.308Z,0.61
2024-01-11T04:14:34.369Z,0.56
2024-01-11T04:17:01.785Z,0.58
2024-01-11T04:19:29.100Z,0.63
2024-01-11T04:21:56.630Z,0.57
2024-01-11T04:24:23.644Z,0.63
2024-01-11T04:26:51.064Z,0.59
2024-01-11T04:29:18.482Z,0.59
2024-01-11T04:31:45.870Z,0.64
2024-01-11T04:34:12.971Z,0.53
2024-01-11T04:36:40.784Z,0.60
2024-01-11T04:39:08.722Z,0.58
2024-01-11T04:41:39.607Z,0.57
2024-01-11T04:44:06.727Z,0.56
2024-01-11T04:46:34.132Z,0.60
2024-01-11T04:49:01.324Z,0.67
2024-01-11T04:51:28.777Z,0.56
2024-01-11T04:53:55.951Z,0.57
2024-01-11T04:56:23.344Z,0.51
2024-01-11T04:58:50.505Z,0.57
2024-01-11T05:01:19.135Z,0.50
2024-01-11T05:03:47.547Z,0.56
2024-01-11T05:06:19.355Z,0.49
2024-01-11T05:08:55.394Z,0.57
2024-01-11T05:11:25.729Z,0.22
2024-01-11T05:13:54.022Z,0.23
2024-01-11T05:16:22.289Z,0.27
2024-01-11T05:18:50.316Z,0.27
2024-01-11T05:21:17.796Z,0.33
2024-01-11T05:23:45.042Z,0.28
2024-01-11T05:26:14.239Z,0.32
2024-01-11T05:28:41.566Z,0.34
2024-01-11T05:31:11.087Z,0.36
2024-01-11T05:33:42.469Z,0.25
2024-01-11T05:36:10.478Z,0.29
2024-01-11T05:38:39.271Z,0.40
2024-01-11T05:41:06.795Z,0.42
2024-01-11T05:43:33.893Z,0.26
2024-01-11T05:46:01.271Z,0.50
2024-01-11T05:48:28.516Z,0.31
2024-01-11T05:50:55.960Z,0.38
2024-01-11T05:53:23.740Z,0.35
2024-01-11T05:55:53.068Z,0.41
2024-01-11T05:58:21.452Z,0.52
2024-01-11T06:00:48.901Z,0.40
2024-01-11T06:03:16.441Z,0.51
2024-01-11T06:05:44.074Z,0.35
2024-01-11T06:08:11.277Z,0.50
2024-01-11T06:10:40.115Z,0.38
2024-01-11T06:13:07.205Z,0.46
2024-01-11T06:15:34.578Z,0.34
2024-01-11T06:18:01.922Z,0.48
2024-01-11T06:20:29.405Z,0.50
2024-01-11T06:22:57.308Z,0.35
2024-01-11T06:25:24.640Z,0.45
2024-01-11T06:27:51.681Z,0.46
2024-01-11T06:30:19.156Z,0.46
2024-01-11T06:32:46.421Z,0.42
2024-01-11T06:35:13.905Z,0.48
2024-01-11T06:37:40.944Z,0.50
2024-01-11T06:40:09.755Z,0.39
2024-01-11T06:42:37.005Z,0.51
2024-01-11T06:45:04.689Z,0.42
2024-01-11T06:47:32.050Z,0.53
2024-01-11T06:50:00.835Z,0.56
2024-01-11T06:52:28.028Z,0.56
2024-01-11T06:54:55.414Z,0.44
2024-01-11T06:57:22.625Z,0.54
2024-01-11T06:59:51.810Z,0.55
2024-01-11T07:02:19.550Z,0.47
2024-01-11T07:04:47.060Z,0.51
2024-01-11T07:07:14.109Z,0.52
2024-01-11T07:09:41.422Z,0.36
2024-01-11T07:12:08.796Z,0.48
2024-01-11T07:14:36.705Z,0.42
2024-01-11T07:17:05.235Z,0.50
2024-01-11T07:21:59.797Z,0.49
2024-01-11T07:24:27.619Z,0.53
2024-01-11T07:26:55.040Z,0.53
2024-01-11T07:29:22.769Z,0.69
2024-01-11T07:31:49.998Z,0.80
2024-01-11T07:34:18.918Z,0.57
2024-01-11T07:36:46.056Z,0.50
2024-01-11T07:39:13.462Z,0.43
2024-01-11T07:41:40.680Z,0.51
2024-01-11T07:44:09.733Z,0.51
2024-01-11T07:46:42.519Z,0.42
2024-01-11T07:49:17.192Z,0.39
2024-01-11T07:51:44.585Z,0.48
2024-01-11T07:54:12.017Z,0.47
2024-01-11T07:56:39.220Z,0.50
2024-01-11T07:59:07.159Z,0.58
2024-01-11T08:01:36.600Z,0.64
2024-01-11T08:04:04.510Z,0.53
2024-01-11T08:06:31.751Z,0.83
2024-01-11T08:08:59.306Z,0.76
2024-01-11T08:11:27.914Z,0.90
2024-01-11T08:13:56.964Z,0.72
2024-01-11T08:16:24.100Z,0.83
2024-01-11T08:18:51.606Z,0.87
2024-01-11T08:21:18.700Z,0.75
2024-01-11T08:23:48.740Z,0.77
2024-01-11T08:26:16.596Z,0.80
2024-01-11T08:28:44.179Z,0.67
2024-01-11T08:31:11.512Z,0.78
2024-01-11T08:33:39.409Z,0.77
2024-01-11T08:36:08.254Z,0.84
2024-01-11T08:38:37.157Z,0.85
2024-01-11T08:41:05.058Z,0.88
2024-01-11T08:43:32.647Z,1.03
2024-01-11T08:46:00.125Z,0.73
2024-01-11T08:48:28.242Z,0.83
2024-01-11T08:50:55.587Z,0.80
2024-01-11T08:53:23.131Z,0.87
2024-01-11T08:55:50.215Z,0.82
2024-01-11T08:58:17.775Z,0.85
2024-01-11T09:00:45.349Z,0.93
2024-01-11T09:03:15.093Z,0.91
2024-01-11T09:05:43.218Z,0.93
2024-01-11T09:08:10.631Z,1.17
2024-01-11T09:10:37.733Z,1.17
2024-01-11T09:13:05.103Z,1.40
2024-01-11T09:15:32.520Z,1.44
2024-01-11T09:18:01.439Z,1.45
2024-01-11T09:20:28.865Z,1.38
2024-01-11T09:22:56.253Z,1.35
2024-01-11T09:25:25.081Z,1.41
2024-01-11T09:27:52.424Z,1.44
2024-01-11T09:30:19.843Z,1.51
2024-01-11T09:32:47.394Z,1.50
2024-01-11T09:35:16.670Z,1.46
2024-01-11T09:37:47.109Z,1.39
2024-01-11T09:40:14.289Z,1.34
2024-01-11T09:42:41.806Z,1.51
2024-01-11T09:45:11.541Z,1.32
2024-01-11T09:47:39.685Z,1.48
2024-01-11T09:50:08.295Z,1.50
2024-01-11T09:52:37.230Z,1.48
2024-01-11T09:55:04.824Z,1.62
2024-01-11T09:57:36.381Z,1.69
2024-01-11T10:00:08.812Z,1.50
2024-01-11T10:02:36.535Z,1.48
2024-01-11T10:05:04.220Z,1.69
2024-01-11T10:07:34.050Z,1.86
2024-01-11T10:10:01.674Z,1.73
2024-01-11T10:12:29.411Z,1.88
2024-01-11T10:14:56.548Z,1.84
2024-01-11T10:17:26.291Z,1.77
2024-01-11T10:19:55.436Z,1.87
2024-01-11T10:22:26.115Z,1.50
2024-01-11T10:25:13.154Z,1.71
2024-01-11T10:27:45.701Z,1.87
2024-01-11T10:30:14.813Z,1.69
2024-01-11T10:32:42.359Z,1.65
2024-01-11T10:35:09.622Z,1.81
2024-01-11T10:37:40.118Z,1.77
2024-01-11T10:40:15.615Z,1.53
2024-01-11T10:42:45.082Z,1.87
2024-01-11T10:45:17.451Z,1.72
2024-01-11T10:48:04.500Z,1.76
2024-01-11T10:50:36.945Z,2.07
2024-01-11T10:53:12.699Z,1.73
2024-01-11T10:55:42.057Z,1.93
2024-01-11T10:58:12.000Z,1.98
2024-01-11T11:00:39.246Z,1.92
2024-01-11T11:03:08.522Z,1.91
2024-01-11T11:05:39.051Z,1.99
2024-01-11T11:08:08.217Z,1.84
2024-01-11T11:10:35.547Z,2.01
2024-01-11T11:13:04.468Z,2.00
2024-01-11T11:15:33.175Z,1.94
2024-01-11T11:18:02.125Z,1.95
2024-01-11T11:20:29.553Z,2.08
2024-01-11T11:23:05.988Z,1.93
2024-01-11T11:25:35.562Z,2.04
2024-01-11T11:28:05.586Z,1.89
2024-01-11T11:30:41.332Z,2.18
2024-01-11T11:33:17.506Z,1.92
2024-01-11T11:35:46.939Z,1.92
2024-01-11T11:38:24.195Z,1.85
2024-01-11T11:40:53.868Z,1.79
2024-01-11T11:43:24.370Z,2.02
2024-01-11T11:45:53.094Z,1.99
2024-01-11T11:48:32.766Z,1.85
2024-01-11T11:51:10.311Z,1.91
2024-01-11T11:53:39.470Z,1.82
2024-01-11T11:56:08.072Z,1.98
2024-01-11T11:58:36.025Z,1.88
2024-01-11T12:01:05.343Z,1.90
2024-01-11T12:03:40.564Z,1.69
2024-01-11T12:06:10.212Z,1.88
2024-01-11T12:08:38.236Z,1.70
2024-01-11T12:11:06.684Z,2.04
2024-01-11T12:13:34.612Z,1.89
2024-01-11T12:16:01.615Z,1.85
2024-01-11T12:18:29.177Z,1.78
2024-01-11T12:20:56.386Z,1.59
2024-01-11T12:23:24.113Z,1.67
2024-01-11T12:25:51.382Z,1.90
2024-01-11T12:28:18.947Z,1.89
2024-01-11T12:30:46.768Z,2.41
2024-01-11T12:33:14.747Z,2.54
2024-01-11T12:35:42.293Z,2.18
2024-01-11T12:38:12.597Z,2.56
2024-01-11T12:40:41.031Z,2.17
2024-01-11T12:43:08.960Z,2.22
2024-01-11T12:45:36.787Z,2.23
2024-01-11T12:48:08.147Z,1.94
2024-01-11T12:50:36.397Z,2.01
2024-01-11T12:53:19.533Z,1.88
2024-01-11T12:55:54.932Z,1.97
2024-01-11T12:58:27.408Z,1.92
2024-01-11T13:00:55.412Z,1.88
2024-01-11T13:03:23.202Z,1.99
2024-01-11T13:05:50.759Z,1.86
2024-01-11T13:08:21.117Z,1.88
2024-01-11T13:10:49.524Z,2.07
2024-01-11T13:13:17.428Z,2.05
2024-01-11T13:15:46.111Z,2.03
2024-01-11T13:18:13.664Z,1.89
2024-01-11T13:20:40.841Z,2.11
2024-01-11T13:23:16.208Z,2.14
2024-01-11T13:25:44.495Z,1.97
2024-01-11T13:28:13.052Z,1.99
2024-01-11T13:30:44.874Z,2.03
2024-01-11T13:33:13.493Z,2.40
2024-01-11T13:35:45.503Z,1.98
2024-01-11T13:38:22.611Z,2.14
2024-01-11T13:40:51.748Z,1.95
2024-01-11T13:43:19.533Z,2.04
2024-01-11T13:45:46.985Z,2.00
2024-01-11T13:48:17.947Z,1.88
2024-01-11T13:50:45.445Z,1.80
2024-01-11T13:53:13.217Z,1.73
2024-01-11T13:55:41.196Z,1.78
2024-01-11T13:58:09.664Z,1.72
2024-01-11T14:00:42.439Z,1.90
2024-01-11T14:03:17.736Z,1.76
2024-01-11T14:05:44.953Z,1.83
2024-01-11T14:08:15.683Z,1.89
2024-01-11T14:10:42.726Z,1.99
2024-01-11T14:13:10.733Z,1.97
2024-01-11T14:15:37.917Z,2.00
2024-01-11T14:18:06.912Z,1.95
2024-01-11T14:20:35.560Z,1.83
2024-01-11T14:23:03.452Z,1.85
2024-01-11T14:25:31.567Z,2.02
2024-01-11T14:27:59.245Z,1.82
2024-01-11T14:30:27.377Z,2.02
2024-01-11T14:32:54.883Z,1.95
2024-01-11T14:35:22.147Z,1.92
2024-01-11T14:37:50.291Z,1.94
2024-01-11T14:40:17.394Z,1.93
2024-01-11T14:42:44.977Z,1.91
2024-01-11T14:45:13.545Z,1.98
2024-01-11T14:47:41.610Z,1.88
2024-01-11T14:50:11.418Z,1.95
2024-01-11T14:52:42.201Z,2.07
2024-01-11T14:55:11.110Z,1.91
2024-01-11T14:57:40.526Z,1.95
2024-01-11T15:00:14.487Z,1.97
2024-01-11T15:02:42.358Z,1.98
2024-01-11T15:05:09.883Z,1.94
2024-01-11T15:07:37.424Z,2.05
2024-01-11T15:10:04.976Z,2.16
2024-01-11T15:12:32.770Z,2.10
2024-01-11T15:15:00.070Z,2.03
2024-01-11T15:17:27.715Z,2.02
2024-01-11T15:19:54.954Z,2.01
2024-01-11T15:22:22.477Z,1.97
2024-01-11T15:24:54.433Z,1.94
2024-01-11T15:27:22.532Z,1.85
2024-01-11T15:29:51.571Z,1.93
2024-01-11T15:32:19.213Z,1.92
2024-01-11T15:34:46.376Z,1.81
2024-01-11T15:37:13.884Z,1.91
2024-01-11T15:39:41.508Z,1.81
2024-01-11T15:42:08.950Z,1.90
2024-01-11T15:44:39.229Z,1.75
2024-01-11T15:47:07.078Z,1.83
2024-01-11T15:49:34.235Z,1.73
2024-01-11T15:52:01.743Z,1.77
2024-01-11T15:54:28.739Z,1.61
2024-01-11T15:56:56.496Z,1.56
2024-01-11T15:59:25.527Z,1.53
2024-01-11T16:02:03.037Z,1.56
2024-01-11T16:04:33.834Z,1.48
2024-01-11T16:07:01.352Z,1.39
2024-01-11T16:09:28.672Z,1.57
2024-01-11T16:12:03.475Z,1.51
2024-01-11T16:14:32.702Z,1.55
2024-01-11T16:17:00.175Z,1.46
2024-01-11T16:19:27.460Z,1.49
2024-01-11T16:21:54.944Z,1.50
2024-01-11T16:24:22.133Z,1.43
2024-01-11T16:26:49.862Z,1.53
2024-01-11T16:29:17.104Z,1.40
2024-01-11T16:31:44.551Z,1.16
2024-01-11T16:34:12.732Z,1.12
2024-01-11T16:36:40.292Z,1.20
2024-01-11T16:39:11.314Z,1.28
2024-01-11T16:41:39.617Z,1.28
2024-01-11T16:44:06.835Z,1.18
2024-01-11T16:46:34.668Z,1.11
2024-01-11T16:49:04.612Z,1.17
2024-01-11T16:51:32.774Z,1.09
2024-01-11T16:53:59.849Z,1.16
2024-01-11T16:56:27.557Z,1.27
2024-01-11T16:58:54.731Z,1.16
2024-01-11T17:01:22.124Z,1.22
2024-01-11T17:03:49.729Z,1.17
2024-01-11T17:06:20.919Z,1.16
2024-01-11T17:08:50.758Z,1.21
2024-01-11T17:11:19.347Z,1.19
2024-01-11T17:13:47.185Z,1.23
2024-01-11T17:16:21.702Z,1.07
2024-01-11T17:18:49.520Z,1.15
2024-01-11T17:21:17.198Z,1.07
2024-01-11T17:23:44.555Z,1.16
2024-01-11T17:26:12.149Z,1.02
2024-01-11T17:28:39.465Z,1.08
2024-01-11T17:31:07.226Z,1.02
2024-01-11T17:33:34.465Z,1.03
2024-01-11T17:36:02.237Z,1.03
2024-01-11T17:38:29.392Z,1.04
2024-01-11T17:40:56.972Z,1.08
2024-01-11T17:43:24.082Z,0.98
2024-01-11T17:45:52.448Z,1.21
2024-01-11T17:48:22.120Z,1.03
2024-01-11T17:50:50.132Z,1.10
2024-01-11T17:53:17.412Z,1.30
2024-01-11T17:55:45.787Z,1.26
2024-01-11T17:58:12.924Z,1.18
2024-01-11T18:00:41.629Z,1.06
2024-01-11T18:03:08.774Z,0.93
2024-01-11T18:05:36.579Z,1.08
2024-01-11T18:08:04.127Z,1.26
2024-01-11T18:10:38.322Z,1.07
2024-01-11T18:13:05.629Z,1.22
2024-01-11T18:15:33.224Z,1.05
2024-01-11T18:18:00.813Z,1.06
2024-01-11T18:20:33.120Z,1.23
2024-01-11T18:23:00.313Z,1.08
2024-01-11T18:25:27.730Z,1.12
2024-01-11T18:27:54.804Z,1.20
2024-01-11T18:30:23.063Z,1.04
2024-01-11T18:32:50.406Z,0.98
2024-01-11T18:35:18.131Z,1.10
2024-01-11T18:37:45.320Z,1.06
2024-01-11T18:40:12.718Z,0.87
2024-01-11T18:42:39.856Z,0.89
2024-01-11T18:45:08.159Z,0.91
2024-01-11T18:47:37.654Z,0.98
2024-01-11T18:50:06.140Z,0.88
2024-01-11T18:52:37.679Z,0.76
2024-01-11T18:55:12.914Z,0.78
2024-01-11T18:57:45.412Z,0.84
2024-01-11T19:00:13.068Z,0.85
2024-01-11T19:02:40.223Z,0.83
2024-01-11T19:05:08.105Z,0.87
2024-01-11T19:07:35.804Z,0.96
2024-01-11T19:10:04.701Z,0.84
2024-01-11T19:12:31.849Z,0.80
2024-01-11T19:14:59.223Z,0.79
2024-01-11T19:17:26.536Z,0.96
2024-01-11T19:19:54.060Z,0.74
2024-01-11T19:22:21.154Z,0.78
2024-01-11T19:24:48.654Z,0.79
2024-01-11T19:27:15.814Z,0.68
2024-01-11T19:29:43.318Z,0.59
2024-01-11T19:32:10.522Z,0.49
2024-01-11T19:34:38.856Z,0.55
2024-01-11T19:37:06.128Z,0.63
2024-01-11T19:39:33.503Z,0.27
2024-01-11T19:42:00.569Z,0.28
2024-01-11T19:44:29.052Z,0.24
2024-01-11T19:46:57.244Z,0.31
2024-01-11T19:49:24.603Z,0.35
2024-01-11T19:51:51.937Z,0.35
2024-01-11T19:54:19.332Z,0.20
2024-01-11T19:56:47.277Z,0.22
2024-01-11T19:59:16.490Z,0.28
2024-01-11T20:01:43.735Z,0.25
2024-01-11T20:04:11.262Z,0.43
2024-01-11T20:06:38.688Z,0.45
2024-01-11T20:09:06.089Z,0.43
2024-01-11T20:11:33.471Z,0.45
2024-01-11T20:14:01.004Z,0.41
2024-01-11T20:16:28.321Z,0.50
2024-01-11T20:18:55.935Z,0.48
2024-01-11T20:21:24.310Z,0.55
2024-01-11T20:23:51.775Z,0.52
2024-01-11T20:26:24.688Z,0.48
2024-01-11T20:28:53.251Z,0.58
2024-01-11T20:31:21.983Z,0.58
2024-01-11T20:33:49.612Z,0.55
2024-01-11T20:36:16.889Z,0.56
2024-01-11T20:38:44.396Z,0.60
2024-01-11T20:41:14.803Z,0.60
2024-01-11T20:43:42.464Z,0.58
2024-01-11T20:46:09.651Z,0.49
2024-01-11T20:48:37.345Z,0.60
2024-01-11T20:51:04.834Z,0.64
2024-01-11T20:53:32.351Z,0.48
2024-01-11T20:55:59.585Z,0.51
2024-01-11T20:58:26.988Z,0.48
2024-01-11T21:00:54.049Z,0.41
2024-01-11T21:03:21.613Z,0.40
2024-01-11T21:05:53.756Z,0.42
2024-01-11T21:08:21.493Z,0.30
2024-01-11T21:10:48.636Z,0.34
2024-01-11T21:13:16.769Z,0.41
2024-01-11T21:15:43.883Z,0.37
2024-01-11T21:18:11.445Z,0.27
2024-01-11T21:20:39.569Z,0.24
2024-01-11T21:23:06.957Z,0.26
2024-01-11T21:25:33.974Z,0.23
2024-01-11T21:28:01.460Z,0.19
2024-01-11T21:30:28.492Z,0.19
2024-01-11T21:32:56.806Z,0.19
2024-01-11T21:35:24.077Z,0.12
2024-01-11T21:37:51.653Z,0.01
2024-01-11T21:40:20.231Z,0.01
2024-01-11T21:42:47.733Z,-0.20
2024-01-11T21:45:14.905Z,-0.30
2024-01-11T21:47:42.916Z,-0.27
2024-01-11T21:50:11.195Z,-0.18
2024-01-11T21:52:39.179Z,-0.29
2024-01-11T21:55:07.842Z,-0.35
2024-01-11T21:57:35.298Z,-0.34
2024-01-11T22:00:02.832Z,-0.30
2024-01-11T22:02:33.088Z,-0.31
2024-01-11T22:05:00.520Z,-0.40
2024-01-11T22:07:28.291Z,-0.32
2024-01-11T22:09:55.742Z,-0.38
2024-01-11T22:12:23.398Z,-0.34
2024-01-11T22:14:50.525Z,-0.23
2024-01-11T22:17:17.919Z,-0.20
2024-01-11T22:19:46.616Z,-0.26
2024-01-11T22:22:14.158Z,-0.22
2024-01-11T22:24:41.296Z,-0.20
2024-01-11T22:27:17.914Z,-0.27
2024-01-11T22:29:45.170Z,-0.32
2024-01-11T22:32:12.622Z,-0.26
2024-01-11T22:34:39.883Z,-0.28
2024-01-11T22:37:07.261Z,-0.22
2024-01-11T22:39:34.349Z,-0.24
2024-01-11T22:42:03.476Z,-0.39
2024-01-11T22:44:31.337Z,-0.34
2024-01-11T22:46:58.659Z,-0.41
2024-01-11T22:49:26.475Z,-0.39
2024-01-11T22:51:53.850Z,-0.43
2024-01-11T22:54:20.847Z,-0.43
2024-01-11T22:56:48.591Z,-0.41
2024-01-11T22:59:15.692Z,-0.47
2024-01-11T23:01:43.574Z,-0.45
2024-01-11T23:04:10.658Z,-0.47
2024-01-11T23:06:38.147Z,-0.57
2024-01-11T23:09:05.497Z,-0.47
2024-01-11T23:11:33.444Z,-0.53
2024-01-11T23:14:01.220Z,-0.63
2024-01-11T23:16:29.425Z,-0.60
2024-01-11T23:18:56.867Z,-0.58
2024-01-11T23:21:24.284Z,-0.60
2024-01-11T23:23:51.355Z,-0.58
2024-01-11T23:26:18.785Z,-0.61
2024-01-11T23:28:45.877Z,-0.64
2024-01-11T23:31:13.270Z,-0.75
2024-01-11T23:33:40.565Z,-0.69
2024-01-11T23:36:08.237Z,-0.68
2024-01-11T23:38:35.270Z,-0.77
2024-01-11T23:41:02.631Z,-0.70
2024-01-11T23:43:29.608Z,-0.81
2024-01-11T23:45:57.645Z,-0.80
2024-01-11T23:48:24.829Z,-0.87
2024-01-11T23:50:53.132Z,-1.05
2024-01-11T23:53:20.398Z,-1.03
2024-01-11T23:55:47.929Z,-1.08
2024-01-11T23:58:15.110Z,-0.96
